Time;durP1;ratioP1;P1;durP2;ratioP2;P2;SDS_P1;SDS_P2;PMS_P1;PMS_P2;Temp;Humidity;BMP_temperature;BMP_pressure;BME280_temperature;BME280_humidity;BME280_pressure;Samples;Min_cycle;Max_cycle;Signal;HPM_P1;HPM_P2
2021/12/13 00:02:24;;;;;;;11.32;1.70;;;12.20;99.90;;;;;;5063079;28;20036;-74
2021/12/13 00:05:21;;;;;;;14.52;1.98;;;12.20;99.90;;;;;;5061972;28;20016;-74
2021/12/13 00:07:54;;;;;;;16.50;2.33;;;12.30;99.90;;;;;;5062479;28;20044;-75
2021/12/13 00:10:23;;;;;;;10.90;1.65;;;12.20;99.90;;;;;;5065361;28;20029;-74
2021/12/13 00:12:58;;;;;;;14.00;1.90;;;12.30;99.90;;;;;;5065906;28;20016;-73
2021/12/13 00:15:32;;;;;;;13.27;1.67;;;12.30;99.90;;;;;;5066213;28;20028;-73
2021/12/13 00:18:01;;;;;;;13.50;1.85;;;12.30;99.90;;;;;;5066174;28;20027;-74
2021/12/13 00:20:37;;;;;;;19.08;3.03;;;12.30;99.90;;;;;;5047091;28;20534;-74
2021/12/13 00:23:30;;;;;;;10.35;1.75;;;12.30;99.90;;;;;;5029570;28;20239;-73
2021/12/13 00:26:00;;;;;;;19.27;2.10;;;12.30;99.90;;;;;;5045895;28;20320;-73
2021/12/13 00:28:30;;;;;;;11.13;1.92;;;12.30;99.90;;;;;;5046126;28;20029;-73
2021/12/13 00:31:34;;;;;;;13.45;1.55;;;12.30;99.90;;;;;;5045543;28;20025;-73
2021/12/13 00:34:09;;;;;;;8.85;1.30;;;12.30;99.90;;;;;;5034343;28;20032;-73
2021/12/13 00:36:44;;;;;;;12.07;1.90;;;12.30;99.90;;;;;;5046855;28;20314;-73
2021/12/13 00:39:18;;;;;;;14.23;2.50;;;12.30;99.90;;;;;;5043598;28;20322;-73
2021/12/13 00:41:46;;;;;;;7.65;1.30;;;12.30;99.90;;;;;;5062019;28;20327;-73
2021/12/13 00:44:17;;;;;;;18.40;1.85;;;12.30;99.90;;;;;;5065886;28;20028;-73
2021/12/13 00:46:45;;;;;;;9.35;1.63;;;12.40;99.90;;;;;;5065421;28;20021;-72
2021/12/13 00:49:14;;;;;;;13.13;1.70;;;12.40;99.90;;;;;;5066549;28;20052;-73
2021/12/13 00:51:45;;;;;;;12.07;1.60;;;12.40;99.90;;;;;;5065051;28;20021;-73
2021/12/13 00:54:19;;;;;;;9.30;1.50;;;12.40;99.90;;;;;;5066049;28;20096;-73
2021/12/13 00:57:16;;;;;;;14.00;1.48;;;12.40;99.90;;;;;;5066560;28;20231;-73
2021/12/13 00:59:53;;;;;;;9.68;1.60;;;12.40;99.90;;;;;;5065311;28;20025;-74
2021/12/13 01:02:28;;;;;;;8.93;1.52;;;12.40;99.90;;;;;;5064399;28;20334;-73
2021/12/13 01:05:02;;;;;;;10.93;1.60;;;12.40;99.90;;;;;;5066464;28;20023;-74
2021/12/13 01:08:07;;;;;;;13.10;1.50;;;12.40;99.90;;;;;;5065203;28;20036;-72
2021/12/13 01:11:04;;;;;;;11.75;1.27;;;12.50;99.90;;;;;;5070227;28;20052;-73
2021/12/13 01:13:38;;;;;;;11.88;1.98;;;12.50;99.90;;;;;;5061162;28;20197;-73
2021/12/13 01:16:38;;;;;;;10.25;1.00;;;12.40;99.90;;;;;;5046335;28;20084;-73
2021/12/13 01:19:30;;;;;;;11.65;1.60;;;12.50;99.90;;;;;;5045197;28;20300;-73
2021/12/13 01:22:42;;;;;;;14.20;1.45;;;12.40;99.90;;;;;;5030136;28;20061;-72
2021/12/13 01:25:43;;;;;;;11.30;1.55;;;12.40;99.90;;;;;;5044934;28;20037;-74
2021/12/13 01:28:20;;;;;;;9.35;1.42;;;12.40;99.90;;;;;;5045287;28;20101;-72
2021/12/13 01:30:53;;;;;;;12.93;1.80;;;12.30;99.90;;;;;;5045953;28;20025;-73
2021/12/13 01:33:21;;;;;;;7.22;1.17;;;12.30;99.90;;;;;;5045595;28;20032;-73
2021/12/13 01:35:50;;;;;;;14.77;1.85;;;12.30;99.90;;;;;;5044535;28;20316;-73
2021/12/13 01:38:32;;;;;;;14.15;2.03;;;12.30;99.90;;;;;;5044298;28;20058;-74
2021/12/13 01:41:00;;;;;;;14.05;1.77;;;12.30;99.90;;;;;;5051969;28;20024;-73
2021/12/13 01:43:30;;;;;;;8.45;1.38;;;12.40;99.90;;;;;;5064679;28;20025;-72
2021/12/13 01:45:57;;;;;;;6.55;1.00;;;12.30;99.90;;;;;;5065379;28;20016;-71
2021/12/13 01:48:28;;;;;;;10.13;1.55;;;12.40;99.90;;;;;;5064219;28;20231;-73
2021/12/13 01:51:04;;;;;;;5.47;1.23;;;12.40;99.90;;;;;;5064135;28;20028;-72
2021/12/13 01:53:52;;;;;;;10.18;1.20;;;12.40;99.90;;;;;;5063417;28;20212;-73
2021/12/13 01:56:37;;;;;;;10.07;1.85;;;12.30;99.90;;;;;;5064388;28;20025;-74
2021/12/13 01:59:26;;;;;;;10.93;1.52;;;12.30;99.90;;;;;;5064143;28;20025;-73
2021/12/13 02:01:53;;;;;;;6.63;1.02;;;12.40;99.90;;;;;;5063950;28;20021;-73
2021/12/13 02:04:22;;;;;;;9.68;1.30;;;12.40;99.90;;;;;;5064219;28;20024;-73
2021/12/13 02:06:51;;;;;;;10.20;1.83;;;12.40;99.90;;;;;;5065149;28;20024;-73
2021/12/13 02:09:23;;;;;;;10.20;1.30;;;12.40;99.90;;;;;;5064065;28;20028;-73
2021/12/13 02:11:53;;;;;;;8.93;1.13;;;12.40;99.90;;;;;;5064408;28;20235;-73
2021/12/13 02:14:24;;;;;;;5.30;1.13;;;12.40;99.90;;;;;;5064072;28;20048;-72
2021/12/13 02:17:10;;;;;;;6.32;1.05;;;12.40;99.90;;;;;;5063835;28;20036;-72
2021/12/13 02:19:47;;;;;;;15.38;1.42;;;12.40;99.90;;;;;;5063771;28;20052;-73
2021/12/13 02:22:46;;;;;;;7.72;1.45;;;12.40;99.90;;;;;;5063057;28;20056;-73
2021/12/13 02:25:34;;;;;;;11.95;1.40;;;12.40;99.90;;;;;;5063501;28;20021;-73
2021/12/13 02:28:08;;;;;;;15.30;1.70;;;12.40;99.90;;;;;;5063978;28;20021;-73
2021/12/13 02:30:50;;;;;;;10.48;1.58;;;12.50;99.90;;;;;;5064869;28;20074;-74
2021/12/13 02:33:22;;;;;;;10.73;1.30;;;12.50;99.90;;;;;;5063424;28;20323;-74
2021/12/13 02:35:54;;;;;;;10.35;1.52;;;12.40;99.90;;;;;;5064757;28;20281;-74
2021/12/13 02:38:22;;;;;;;13.82;1.67;;;12.50;99.90;;;;;;5064021;28;20143;-73
2021/12/13 02:40:50;;;;;;;11.15;1.35;;;12.50;99.90;;;;;;5061584;28;20028;-73
2021/12/13 02:43:20;;;;;;;11.52;1.50;;;12.50;99.90;;;;;;5063981;28;20017;-73
2021/12/13 02:45:50;;;;;;;8.45;1.40;;;12.50;99.90;;;;;;5063331;28;20029;-72
2021/12/13 02:48:24;;;;;;;11.15;1.55;;;12.50;99.90;;;;;;5063246;28;20023;-73
2021/12/13 02:51:03;;;;;;;13.00;1.98;;;12.50;99.90;;;;;;5063200;28;20216;-73
2021/12/13 02:53:34;;;;;;;9.60;1.65;;;12.50;99.90;;;;;;5046901;28;20024;-74
2021/12/13 02:56:00;;;;;;;10.38;1.58;;;12.60;99.90;;;;;;5063328;28;20027;-73
2021/12/13 02:58:29;;;;;;;8.32;1.13;;;12.50;99.90;;;;;;5064133;28;20270;-73
2021/12/13 03:01:10;;;;;;;9.93;1.40;;;12.50;99.90;;;;;;5062923;28;20029;-73
2021/12/13 03:03:41;;;;;;;9.50;1.52;;;12.50;99.90;;;;;;5062438;28;20048;-72
2021/12/13 03:06:09;;;;;;;6.15;1.10;;;12.50;99.90;;;;;;5063224;28;20087;-73
2021/12/13 03:08:46;;;;;;;12.15;1.48;;;12.50;99.90;;;;;;5045855;28;20235;-73
2021/12/13 03:11:22;;;;;;;10.00;1.27;;;12.50;99.90;;;;;;5063246;28;20292;-73
2021/12/13 03:13:55;;;;;;;9.13;1.35;;;12.50;99.90;;;;;;5062286;28;20041;-72
2021/12/13 03:16:25;;;;;;;11.52;2.83;;;12.50;99.90;;;;;;5064014;28;20100;-73
2021/12/13 03:19:09;;;;;;;12.20;1.95;;;12.50;99.90;;;;;;5062498;28;20327;-73
2021/12/13 03:22:14;;;;;;;15.60;1.33;;;12.50;99.90;;;;;;5063498;28;20021;-73
2021/12/13 03:25:20;;;;;;;12.98;1.50;;;12.50;99.90;;;;;;5062243;28;20036;-74
2021/12/13 03:28:22;;;;;;;13.70;1.30;;;12.50;99.90;;;;;;5062777;28;20024;-73
2021/12/13 03:30:53;;;;;;;;;;;12.60;99.90;;;;;;5063070;28;20033;-73
2021/12/13 03:33:24;;;;;;;9.13;2.00;;;12.50;99.90;;;;;;5063281;28;19908;-73
2021/12/13 03:35:58;;;;;;;11.07;1.73;;;12.50;99.90;;;;;;5062534;28;20091;-73
2021/12/13 03:38:32;;;;;;;21.38;2.35;;;12.50;99.90;;;;;;5063284;28;20037;-72
2021/12/13 03:41:02;;;;;;;17.08;2.13;;;12.50;99.90;;;;;;5062385;28;20024;-73
2021/12/13 03:43:36;;;;;;;12.50;1.45;;;12.60;99.90;;;;;;5062178;28;20048;-72
2021/12/13 03:46:08;;;;;;;11.02;1.48;;;12.50;99.90;;;;;;5062603;28;20024;-73
2021/12/13 03:48:36;;;;;;;10.57;1.58;;;12.50;99.90;;;;;;5062553;28;20022;-72
2021/12/13 03:51:07;;;;;;;14.90;2.13;;;12.50;99.90;;;;;;5063652;28;20017;-73
2021/12/13 03:53:34;;;;;;;9.05;1.20;;;12.50;99.90;;;;;;5045056;28;20079;-73
2021/12/13 03:56:05;;;;;;;12.80;1.48;;;12.50;99.90;;;;;;5063329;28;20324;-73
2021/12/13 03:58:36;;;;;;;11.02;1.50;;;12.40;99.90;;;;;;5062209;28;20029;-73
2021/12/13 04:01:09;;;;;;;9.38;1.17;;;12.40;99.90;;;;;;5062255;28;20315;-73
2021/12/13 04:03:37;;;;;;;12.45;1.48;;;12.50;99.90;;;;;;5061612;28;20088;-73
2021/12/13 04:06:03;;;;;;;12.15;1.67;;;12.40;99.90;;;;;;5063498;28;20025;-73
2021/12/13 04:08:29;;;;;;;12.70;1.50;;;12.40;99.90;;;;;;5062081;28;20021;-74
2021/12/13 04:11:00;;;;;;;7.30;1.52;;;12.40;99.90;;;;;;5062832;28;20047;-73
2021/12/13 04:13:30;;;;;;;12.27;1.85;;;12.50;99.90;;;;;;5061765;28;20203;-72
2021/12/13 04:16:13;;;;;;;11.40;1.58;;;12.40;99.90;;;;;;5063324;28;20051;-72
2021/12/13 04:21:55;;;;;;;9.77;1.50;;;12.40;99.90;;;;;;5062267;28;20025;-73
2021/12/13 04:24:31;;;;;;;11.32;1.80;;;12.40;99.90;;;;;;5061435;28;20122;-72
2021/12/13 04:27:01;;;;;;;11.82;1.73;;;12.40;99.90;;;;;;5063215;28;20047;-73
2021/12/13 04:29:32;;;;;;;13.20;2.00;;;12.40;99.90;;;;;;5063067;28;20096;-73
2021/12/13 04:32:13;;;;;;;13.90;1.70;;;12.40;99.90;;;;;;5062037;28;20025;-73
2021/12/13 04:34:42;;;;;;;11.63;1.88;;;12.40;99.90;;;;;;5062744;28;20025;-73
2021/12/13 04:37:15;;;;;;;13.65;1.75;;;12.40;99.90;;;;;;5063020;28;20091;-74
2021/12/13 04:39:44;;;;;;;15.48;1.80;;;12.30;99.90;;;;;;5061284;28;20386;-73
2021/12/13 04:42:14;;;;;;;10.85;2.00;;;12.40;99.90;;;;;;5061301;28;20243;-72
2021/12/13 04:44:50;;;;;;;12.63;1.55;;;12.40;99.90;;;;;;5062756;28;20020;-73
2021/12/13 04:47:36;;;;;;;11.48;1.75;;;12.40;99.90;;;;;;5063101;28;20032;-73
2021/12/13 04:50:09;;;;;;;12.23;2.22;;;12.40;99.90;;;;;;5062509;28;20320;-73
2021/12/13 04:52:35;;;;;;;14.40;1.67;;;12.40;99.90;;;;;;5061581;28;20220;-74
2021/12/13 04:55:08;;;;;;;10.85;1.33;;;12.40;99.90;;;;;;5062351;28;20088;-73
2021/12/13 04:57:35;;;;;;;11.93;1.83;;;12.40;99.90;;;;;;5066727;28;20051;-73
2021/12/13 05:00:07;;;;;;;15.77;1.98;;;12.40;99.90;;;;;;5065149;28;20013;-73
2021/12/13 05:02:33;;;;;;;8.77;1.45;;;12.40;99.90;;;;;;5065050;28;20094;-72
2021/12/13 05:05:02;;;;;;;5.72;1.67;;;12.40;99.90;;;;;;5066187;28;20032;-73
2021/12/13 05:07:30;;;;;;;11.18;1.33;;;12.40;99.90;;;;;;5066304;28;20021;-74
2021/12/13 05:09:58;;;;;;;11.20;1.67;;;12.40;99.90;;;;;;5065201;28;20043;-73
2021/12/13 05:12:28;;;;;;;9.00;1.63;;;12.40;99.90;;;;;;5064789;28;20219;-74
2021/12/13 05:15:00;;;;;;;10.77;1.95;;;12.40;99.90;;;;;;5066003;28;20033;-72
2021/12/13 05:17:36;;;;;;;8.15;1.30;;;12.40;99.90;;;;;;5065254;28;20100;-73
2021/12/13 05:20:24;;;;;;;9.93;1.55;;;12.40;99.90;;;;;;5048271;28;20212;-73
2021/12/13 05:23:07;;;;;;;11.25;1.77;;;12.40;99.90;;;;;;5064828;28;20024;-72
2021/12/13 05:25:40;;;;;;;9.52;1.52;;;12.40;99.90;;;;;;5065626;28;20035;-73
2021/12/13 05:28:14;;;;;;;6.13;1.20;;;12.40;99.90;;;;;;5065256;28;20079;-72
2021/12/13 05:30:51;;;;;;;10.02;1.50;;;12.40;99.90;;;;;;5065776;28;20021;-73
2021/12/13 05:33:19;;;;;;;8.02;1.48;;;12.40;99.90;;;;;;5064235;28;20080;-73
2021/12/13 05:35:49;;;;;;;15.50;1.73;;;12.40;99.90;;;;;;5065504;28;20060;-72
2021/12/13 05:38:39;;;;;;;13.27;1.90;;;12.40;99.90;;;;;;5064219;28;20057;-73
2021/12/13 05:41:10;;;;;;;7.50;1.13;;;12.40;99.90;;;;;;5064842;28;20025;-73
2021/12/13 05:43:42;;;;;;;7.60;1.30;;;12.40;99.90;;;;;;5062647;28;20024;-73
2021/12/13 05:46:12;;;;;;;7.05;1.38;;;12.40;99.90;;;;;;5063794;28;20362;-73
2021/12/13 05:49:00;;;;;;;6.88;1.38;;;12.30;99.90;;;;;;5047815;28;20044;-73
2021/12/13 05:51:38;;;;;;;5.85;1.15;;;12.30;99.90;;;;;;5064313;28;20094;-73
2021/12/13 05:54:26;;;;;;;6.70;1.27;;;12.30;99.90;;;;;;5065175;28;20033;-74
2021/12/13 05:57:00;;;;;;;14.27;2.00;;;12.20;99.90;;;;;;5064247;28;20021;-73
2021/12/13 05:59:30;;;;;;;6.15;1.10;;;12.20;99.90;;;;;;5064151;28;20028;-74
2021/12/13 06:02:02;;;;;;;10.77;1.23;;;12.10;99.90;;;;;;5065152;28;20066;-73
2021/12/13 06:04:47;;;;;;;;;;;12.10;99.90;;;;;;5065702;28;20035;-73
2021/12/13 06:07:18;;;;;;;7.05;1.02;;;12.00;99.90;;;;;;5063210;28;19924;-73
2021/12/13 06:10:07;;;;;;;8.27;1.10;;;12.00;99.90;;;;;;5064056;28;20045;-73
2021/12/13 06:12:46;;;;;;;7.95;1.17;;;11.90;99.90;;;;;;5064019;28;20269;-73
2021/12/13 06:15:24;;;;;;;8.65;1.15;;;11.90;99.90;;;;;;5048439;28;20048;-75
2021/12/13 06:17:58;;;;;;;8.25;1.05;;;11.90;99.90;;;;;;5063762;28;20369;-73
2021/12/13 06:20:31;;;;;;;10.30;1.20;;;11.90;99.90;;;;;;5063538;28;20311;-72
2021/12/13 06:23:18;;;;;;;13.25;1.30;;;11.90;99.90;;;;;;5064392;28;20037;-73
2021/12/13 06:25:48;;;;;;;4.85;0.98;;;11.80;99.90;;;;;;5063475;28;20380;-74
2021/12/13 06:28:23;;;;;;;7.40;1.48;;;11.80;99.90;;;;;;5064663;28;20067;-74
2021/12/13 06:30:55;;;;;;;8.15;1.05;;;11.80;99.90;;;;;;5063376;28;20211;-74
2021/12/13 06:33:21;;;;;;;;;;;11.80;99.90;;;;;;5063833;28;20031;-74
2021/12/13 06:36:04;;;;;;;5.22;1.10;;;11.80;99.90;;;;;;5064120;28;19956;-75
2021/12/13 06:38:37;;;;;;;9.00;1.55;;;11.80;99.90;;;;;;5064645;28;20366;-75
2021/12/13 06:41:26;;;;;;;10.02;1.55;;;11.80;99.90;;;;;;5063131;28;20056;-75
2021/12/13 06:44:08;;;;;;;12.73;1.58;;;11.70;99.90;;;;;;5061565;28;20231;-75
2021/12/13 06:46:40;;;;;;;9.25;1.48;;;11.70;99.90;;;;;;5048161;28;20225;-75
2021/12/13 06:49:13;;;;;;;11.98;1.45;;;11.70;99.90;;;;;;5063048;28;20308;-74
2021/12/13 06:51:51;;;;;;;9.18;1.77;;;11.70;99.90;;;;;;5064104;28;20012;-75
2021/12/13 06:54:30;;;;;;;8.25;1.55;;;11.80;99.90;;;;;;5063831;28;20025;-74
2021/12/13 06:57:31;;;;;;;10.02;1.70;;;11.80;99.90;;;;;;5062506;28;20027;-75
2021/12/13 07:00:27;;;;;;;11.87;1.67;;;11.80;99.90;;;;;;5063286;28;20090;-74
2021/12/13 07:03:04;;;;;;;15.95;3.78;;;11.80;99.90;;;;;;5045452;28;20017;-74
2021/12/13 07:05:52;;;;;;;7.00;1.17;;;11.80;99.90;;;;;;5062840;28;20017;-74
2021/12/13 07:08:34;;;;;;;11.25;1.95;;;11.90;99.90;;;;;;5048685;28;20220;-74
2021/12/13 07:11:08;;;;;;;10.77;1.60;;;11.80;99.90;;;;;;5062568;28;20021;-74
2021/12/13 07:13:47;;;;;;;7.15;1.40;;;11.80;99.90;;;;;;5063526;28;20036;-74
2021/12/13 07:16:17;;;;;;;9.60;1.58;;;11.80;99.90;;;;;;5063814;28;20027;-73
2021/12/13 07:18:48;;;;;;;5.10;1.02;;;11.80;99.90;;;;;;5062527;28;20032;-74
2021/12/13 07:21:20;;;;;;;7.55;1.35;;;11.90;99.90;;;;;;5062486;28;20025;-75
2021/12/13 07:24:09;;;;;;;6.65;1.00;;;11.90;99.90;;;;;;5063054;28;20043;-75
2021/12/13 07:27:05;;;;;;;5.10;1.40;;;11.90;99.90;;;;;;5062883;28;20066;-75
2021/12/13 07:29:56;;;;;;;5.10;1.05;;;11.90;99.90;;;;;;5062739;28;20017;-77
2021/12/13 07:32:34;;;;;;;6.43;1.02;;;11.80;99.90;;;;;;5047413;28;20131;-75
2021/12/13 07:35:12;;;;;;;6.57;1.20;;;11.80;99.90;;;;;;5045814;28;20040;-74
2021/12/13 07:38:01;;;;;;;11.65;1.38;;;11.80;99.90;;;;;;5062878;28;20356;-73
2021/12/13 07:40:49;;;;;;;5.00;1.23;;;11.80;99.90;;;;;;5062292;28;20044;-74
2021/12/13 07:43:20;;;;;;;6.88;1.65;;;11.80;99.90;;;;;;5062385;28;20235;-74
2021/12/13 07:45:54;;;;;;;6.07;1.57;;;11.80;99.90;;;;;;5060817;28;20025;-73
2021/12/13 07:48:43;;;;;;;3.20;1.05;;;11.80;99.90;;;;;;5057966;28;20258;-76
2021/12/13 07:51:25;;;;;;;13.30;1.55;;;11.80;99.90;;;;;;5056284;28;20032;-74
2021/12/13 07:54:08;;;;;;;2.38;1.00;;;11.80;99.90;;;;;;5041536;28;20026;-75
2021/12/13 07:56:46;;;;;;;5.85;1.08;;;11.90;99.90;;;;;;5043208;28;20031;-74
2021/12/13 07:59:22;;;;;;;6.10;1.33;;;11.90;99.90;;;;;;5056509;28;20227;-73
2021/12/13 08:02:15;;;;;;;5.97;1.10;;;11.90;99.90;;;;;;5044520;28;20052;-73
2021/12/13 08:05:00;;;;;;;5.53;1.15;;;11.90;99.90;;;;;;5062976;28;20033;-72
2021/12/13 08:07:45;;;;;;;5.35;1.23;;;11.90;99.90;;;;;;5062876;28;20318;-73
2021/12/13 08:10:23;;;;;;;7.03;1.15;;;11.90;99.90;;;;;;5059433;28;20028;-72
2021/12/13 08:12:55;;;;;;;2.88;1.08;;;12.00;99.90;;;;;;5060110;28;20033;-73
2021/12/13 08:15:43;;;;;;;5.50;1.15;;;11.90;99.90;;;;;;5046228;28;20032;-75
2021/12/13 08:18:21;;;;;;;6.97;1.00;;;11.90;99.90;;;;;;5061795;28;20032;-71
2021/12/13 08:20:50;;;;;;;6.93;1.40;;;11.90;99.90;;;;;;5060294;28;20049;-73
2021/12/13 08:23:19;;;;;;;2.45;0.90;;;11.80;99.90;;;;;;5058522;28;20071;-76
2021/12/13 08:25:50;;;;;;;4.18;1.20;;;11.80;99.90;;;;;;5058622;28;20357;-74
2021/12/13 08:28:19;;;;;;;6.88;1.17;;;11.80;99.90;;;;;;5041876;28;20017;-72
2021/12/13 08:30:51;;;;;;;4.32;0.90;;;11.80;99.90;;;;;;5043631;28;20021;-73
2021/12/13 08:33:39;;;;;;;6.40;1.08;;;11.80;99.90;;;;;;5062070;28;20093;-73
2021/12/13 08:36:33;;;;;;;3.53;1.42;;;11.80;99.90;;;;;;5064573;28;20025;-74
2021/12/13 08:39:18;;;;;;;5.32;1.10;;;11.90;99.90;;;;;;5063779;28;20040;-75
2021/12/13 08:41:48;;;;;;;7.88;1.17;;;11.80;99.90;;;;;;5066896;28;20017;-73
2021/12/13 08:44:23;;;;;;;8.20;1.00;;;11.80;99.90;;;;;;5065056;28;20024;-74
2021/12/13 08:47:06;;;;;;;4.25;1.30;;;11.90;99.90;;;;;;5062655;28;20021;-77
2021/12/13 08:49:57;;;;;;;6.00;1.25;;;11.90;99.90;;;;;;5065579;28;20025;-73
2021/12/13 08:52:28;;;;;;;7.93;1.40;;;12.00;99.90;;;;;;5070284;28;20076;-75
2021/12/13 08:55:20;;;;;;;4.78;1.30;;;12.00;99.90;;;;;;5083786;28;20040;-73
2021/12/13 08:57:51;;;;;;;7.35;1.52;;;12.10;99.90;;;;;;5070462;28;20311;-73
2021/12/13 09:00:24;;;;;;;11.25;1.50;;;12.10;99.90;;;;;;5053255;28;20308;-75
2021/12/13 09:02:57;;;;;;;4.65;1.00;;;12.10;99.90;;;;;;5064215;28;20185;-72
2021/12/13 09:05:29;;;;;;;8.40;1.20;;;12.20;99.90;;;;;;5053550;28;20029;-76
2021/12/13 09:08:06;;;;;;;6.30;1.05;;;12.20;99.90;;;;;;5053282;28;20025;-74
2021/12/13 09:10:53;;;;;;;4.50;1.10;;;12.30;99.90;;;;;;5077920;28;20059;-73
2021/12/13 09:13:35;;;;;;;6.05;1.10;;;12.30;99.90;;;;;;5064239;28;20067;-71
2021/12/13 09:16:02;;;;;;;3.75;0.77;;;12.30;99.90;;;;;;5060252;28;20308;-71
2021/12/13 09:18:28;;;;;;;4.35;0.90;;;12.40;99.90;;;;;;5044453;28;20038;-76
2021/12/13 09:20:56;;;;;;;4.35;0.85;;;12.40;99.90;;;;;;5044628;28;20460;-73
2021/12/13 09:23:28;;;;;;;9.27;1.13;;;12.50;99.90;;;;;;5043556;28;20289;-72
2021/12/13 09:26:04;;;;;;;6.43;1.20;;;12.50;99.90;;;;;;5044509;28;20040;-71
2021/12/13 09:28:34;;;;;;;5.05;0.95;;;12.60;99.90;;;;;;5044197;28;20072;-74
2021/12/13 09:31:05;;;;;;;5.10;0.98;;;12.60;99.90;;;;;;5044251;28;20032;-74
2021/12/13 09:33:37;;;;;;;9.85;1.30;;;12.70;99.90;;;;;;5065686;28;20068;-72
2021/12/13 09:36:18;;;;;;;4.13;0.63;;;12.70;99.90;;;;;;5065092;28;20021;-72
2021/12/13 09:39:07;;;;;;;6.85;0.95;;;12.70;99.90;;;;;;5063767;28;20068;-71
2021/12/13 09:42:00;;;;;;;7.70;1.30;;;12.70;99.90;;;;;;5059244;28;20079;-73
2021/12/13 09:44:33;;;;;;;8.02;1.20;;;12.70;99.90;;;;;;5059792;28;20029;-71
2021/12/13 09:47:06;;;;;;;4.03;1.13;;;12.70;99.90;;;;;;5048997;28;20029;-72
2021/12/13 09:49:37;;;;;;;10.63;1.13;;;12.70;99.90;;;;;;5043770;28;20083;-72
2021/12/13 09:52:13;;;;;;;4.50;1.17;;;12.70;99.90;;;;;;5044786;28;20289;-73
2021/12/13 09:54:51;;;;;;;8.40;1.27;;;12.70;99.90;;;;;;5043591;28;20103;-72
2021/12/13 09:57:22;;;;;;;7.68;1.10;;;12.70;99.90;;;;;;5044810;28;20028;-72
2021/12/13 09:59:51;;;;;;;4.53;1.17;;;12.80;99.90;;;;;;5027400;28;20064;-72
2021/12/13 10:02:29;;;;;;;2.75;0.80;;;12.80;99.90;;;;;;5047844;28;20257;-73
2021/12/13 10:04:55;;;;;;;6.32;1.48;;;12.80;99.90;;;;;;5031160;28;20096;-72
2021/12/13 10:07:33;;;;;;;4.13;0.85;;;12.80;99.90;;;;;;5043497;28;20071;-73
2021/12/13 10:10:11;;;;;;;5.00;0.90;;;12.80;99.90;;;;;;5044240;28;20056;-74
2021/12/13 10:12:45;;;;;;;6.70;1.17;;;12.90;99.90;;;;;;5043241;28;20064;-75
2021/12/13 10:15:18;;;;;;;3.90;0.95;;;12.80;99.90;;;;;;5043391;28;20235;-74
2021/12/13 10:17:48;;;;;;;4.93;0.90;;;12.90;99.90;;;;;;5043817;28;20060;-74
2021/12/13 10:20:31;;;;;;;3.40;0.80;;;12.90;99.90;;;;;;5043731;28;20096;-73
2021/12/13 10:22:57;;;;;;;3.78;0.80;;;13.00;99.90;;;;;;5042965;28;20089;-73
2021/12/13 10:25:28;;;;;;;6.20;0.73;;;13.00;99.90;;;;;;5044050;28;20021;-73
2021/12/13 10:27:55;;;;;;;6.97;0.70;;;13.00;99.90;;;;;;5042014;28;20067;-73
2021/12/13 10:30:29;;;;;;;3.08;0.80;;;13.00;99.90;;;;;;5062197;28;20035;-73
2021/12/13 10:32:56;;;;;;;2.45;0.60;;;12.80;99.90;;;;;;5046234;28;20116;-73
2021/12/13 10:35:28;;;;;;;0.55;0.30;;;12.80;99.90;;;;;;5062898;28;20040;-74
2021/12/13 10:37:59;;;;;;;1.52;0.60;;;12.70;99.90;;;;;;5050221;28;20325;-74
2021/12/13 10:40:30;;;;;;;4.20;1.30;;;12.70;99.90;;;;;;5048355;28;20085;-75
2021/12/13 10:43:05;;;;;;;3.40;1.20;;;12.70;99.90;;;;;;5043654;28;20033;-73
2021/12/13 10:45:39;;;;;;;4.90;1.30;;;12.70;99.90;;;;;;5026993;28;20032;-76
2021/12/13 10:48:07;;;;;;;7.90;1.55;;;12.70;99.90;;;;;;5058313;28;20017;-72
2021/12/13 10:50:42;;;;;;;5.80;1.40;;;12.80;99.90;;;;;;5063331;28;20033;-76
2021/12/13 10:53:10;;;;;;;3.15;0.90;;;12.80;99.90;;;;;;5043821;28;20090;-77
2021/12/13 10:55:44;;;;;;;2.45;0.95;;;12.80;99.90;;;;;;5057943;28;20032;-73
2021/12/13 10:58:15;;;;;;;1.38;1.13;;;12.90;99.90;;;;;;5062785;28;20016;-75
2021/12/13 11:00:46;;;;;;;1.60;0.70;;;12.90;99.90;;;;;;5062013;28;20100;-75
2021/12/13 11:03:19;;;;;;;1.30;0.60;;;13.00;99.90;;;;;;5058753;28;20338;-72
2021/12/13 11:05:47;;;;;;;1.15;0.73;;;13.10;99.90;;;;;;5056108;28;20212;-75
2021/12/13 11:08:16;;;;;;;3.63;0.55;;;13.10;99.90;;;;;;5062142;28;20032;-73
2021/12/13 11:10:52;;;;;;;3.03;0.65;;;13.20;99.90;;;;;;5061104;28;20088;-74
2021/12/13 11:13:20;;;;;;;4.95;0.60;;;13.30;99.90;;;;;;5046309;28;20021;-72
2021/12/13 11:15:51;;;;;;;2.35;0.50;;;13.40;99.90;;;;;;5046387;28;20036;-72
2021/12/13 11:18:27;;;;;;;2.63;0.70;;;13.30;99.90;;;;;;5043393;28;20051;-72
2021/12/13 11:20:55;;;;;;;5.75;0.80;;;13.30;99.90;;;;;;5042687;28;20340;-72
2021/12/13 11:23:22;;;;;;;4.43;0.60;;;13.40;99.90;;;;;;5040433;28;20091;-76
2021/12/13 11:25:52;;;;;;;2.88;0.82;;;13.50;99.90;;;;;;5061931;28;20199;-75
2021/12/13 11:28:18;;;;;;;5.47;0.88;;;13.50;99.90;;;;;;5062075;28;20021;-75
2021/12/13 11:30:46;;;;;;;4.30;1.25;;;13.50;99.90;;;;;;5061891;28;20033;-72
2021/12/13 11:33:51;;;;;;;8.77;1.38;;;13.50;99.90;;;;;;5061759;28;20212;-75
2021/12/13 11:36:39;;;;;;;7.55;1.73;;;13.60;99.90;;;;;;5037285;28;20441;-71
2021/12/13 11:39:44;;;;;;;9.88;1.85;;;13.60;99.90;;;;;;5061667;28;20113;-74
2021/12/13 11:42:43;;;;;;;2.22;1.45;;;13.60;99.90;;;;;;5050723;28;20029;-73
2021/12/13 11:45:49;;;;;;;5.47;0.82;;;13.50;99.90;;;;;;5062161;28;20029;-75
2021/12/13 11:48:54;;;;;;;3.60;0.80;;;13.50;99.90;;;;;;5063474;28;20020;-74
2021/12/13 11:51:42;;;;;;;4.40;0.90;;;13.50;99.90;;;;;;5063391;28;20211;-74
2021/12/13 11:54:47;;;;;;;2.38;0.60;;;13.50;99.90;;;;;;5061518;28;20025;-76
2021/12/13 11:57:53;;;;;;;4.20;0.40;;;13.40;99.90;;;;;;5041343;28;20174;-74
2021/12/13 12:00:58;;;;;;;1.88;0.50;;;13.40;99.90;;;;;;5044602;28;20071;-72
2021/12/13 12:04:04;;;;;;;6.60;0.80;;;13.40;99.90;;;;;;5042352;28;20038;-73
2021/12/13 12:07:09;;;;;;;8.70;1.20;;;13.50;99.90;;;;;;5034874;28;20036;-74
2021/12/13 12:10:15;;;;;;;4.07;0.70;;;13.40;99.90;;;;;;5045485;28;20047;-72
2021/12/13 12:13:09;;;;;;;3.10;0.30;;;13.40;99.90;;;;;;5045159;28;20026;-72
2021/12/13 12:15:39;;;;;;;2.83;0.60;;;13.40;99.90;;;;;;5046128;28;20036;-75
2021/12/13 12:18:10;;;;;;;7.22;0.80;;;13.40;99.90;;;;;;5065674;28;20017;-76
2021/12/13 12:20:40;;;;;;;3.00;0.85;;;13.50;99.90;;;;;;5065819;28;20048;-77
2021/12/13 12:23:11;;;;;;;1.77;0.35;;;13.50;99.90;;;;;;5065742;28;20062;-77
2021/12/13 12:25:39;;;;;;;1.90;0.60;;;13.50;99.90;;;;;;5065267;28;20033;-75
2021/12/13 12:28:13;;;;;;;1.45;0.63;;;13.50;99.90;;;;;;5048823;28;20017;-76
2021/12/13 12:30:43;;;;;;;2.75;0.77;;;13.40;99.90;;;;;;5047102;28;20056;-76
2021/12/13 12:33:11;;;;;;;1.60;0.70;;;13.40;99.90;;;;;;5044756;28;20072;-77
2021/12/13 12:35:42;;;;;;;1.55;0.52;;;13.50;99.90;;;;;;5045049;28;20374;-80
2021/12/13 12:38:47;;;;;;;2.33;0.65;;;13.40;99.90;;;;;;5046212;28;20060;-78
2021/12/13 12:41:44;;;;;;;2.08;0.50;;;13.40;99.90;;;;;;5073653;28;20023;-75
2021/12/13 12:44:17;;;;;;;2.05;0.55;;;13.50;99.90;;;;;;5064933;28;20308;-75
2021/12/13 12:46:42;;;;;;;2.97;0.60;;;13.50;99.90;;;;;;5066998;28;20020;-80
2021/12/13 12:49:15;;;;;;;1.48;0.40;;;13.50;99.90;;;;;;5084596;28;20048;-78
2021/12/13 12:51:42;;;;;;;0.82;0.40;;;13.50;99.90;;;;;;5085272;28;20020;-78
2021/12/13 12:54:14;;;;;;;1.17;0.57;;;13.40;99.90;;;;;;5085466;28;20027;-76
2021/12/13 12:56:55;;;;;;;1.70;0.68;;;13.40;99.90;;;;;;5073924;28;20024;-77
2021/12/13 12:59:26;;;;;;;4.40;0.50;;;13.30;99.90;;;;;;5066059;28;20028;-77
2021/12/13 13:02:03;;;;;;;3.58;0.80;;;13.30;99.90;;;;;;5048147;28;20021;-76
2021/12/13 13:04:40;;;;;;;3.58;0.50;;;13.30;99.90;;;;;;5066017;28;20033;-76
2021/12/13 13:07:24;;;;;;;5.20;0.88;;;13.40;99.90;;;;;;5065010;28;20024;-77
2021/12/13 13:11:26;;;;;;;1.38;0.50;;;13.40;99.90;;;;;;5063932;28;20181;-77
2021/12/13 13:13:02;;;;;;;2.72;0.57;;;13.40;99.90;;;;;;5023892;28;20037;-76
2021/12/13 13:15:37;;;;;;;10.02;1.10;;;13.50;99.90;;;;;;5064831;28;20025;-75
2021/12/13 13:18:09;;;;;;;4.88;0.77;;;13.50;99.90;;;;;;5066532;28;20021;-80
2021/12/13 13:20:47;;;;;;;6.47;0.82;;;13.50;99.90;;;;;;5052019;28;20041;-77
2021/12/13 13:23:14;;;;;;;3.85;0.70;;;13.50;99.90;;;;;;5029084;28;20101;-76
2021/12/13 13:25:50;;;;;;;5.75;0.75;;;13.50;99.90;;;;;;5045862;28;20303;-75
2021/12/13 13:28:37;;;;;;;1.80;0.63;;;13.60;99.90;;;;;;5046249;28;20025;-76
2021/12/13 13:31:12;;;;;;;3.15;0.65;;;13.50;99.90;;;;;;5045217;28;20216;-77
2021/12/13 13:33:44;;;;;;;1.42;0.30;;;13.50;99.90;;;;;;5061805;28;20300;-76
2021/12/13 13:36:14;;;;;;;4.53;0.57;;;13.50;99.90;;;;;;5044751;28;20028;-74
2021/12/13 13:38:40;;;;;;;1.88;0.55;;;13.40;99.90;;;;;;5045335;28;20053;-75